Time;durP1;ratioP1;P1;durP2;ratioP2;P2;SDS_P1;SDS_P2;PMS_P1;PMS_P2;Temp;Humidity;BMP_temperature;BMP_pressure;BME280_temperature;BME280_humidity;BME280_pressure;Samples;Min_cycle;Max_cycle;Signal;HPM_P1;HPM_P2
2021/12/20 00:01:45;;;;;;;9.70;4.30;;;;;;;1.44;100.00;97802.23;1737353;82;20967;-75
2021/12/20 00:04:12;;;;;;;8.63;4.57;;;;;;;1.43;100.00;97799.73;1737747;83;20983;-74
2021/12/20 00:06:39;;;;;;;7.73;4.60;;;;;;;1.42;100.00;97800.23;1737760;83;21019;-74
2021/12/20 00:09:05;;;;;;;7.77;4.47;;;;;;;1.44;100.00;97800.08;1737748;82;20948;-73
2021/12/20 00:11:33;;;;;;;7.87;4.30;;;;;;;1.40;100.00;97815.56;1737652;83;21050;-74
2021/12/20 00:14:02;;;;;;;6.73;3.83;;;;;;;1.38;100.00;97808.24;1737643;81;21011;-73
2021/12/20 00:16:29;;;;;;;5.00;3.87;;;;;;;1.40;100.00;97812.89;1737622;82;21494;-74
2021/12/20 00:18:55;;;;;;;8.80;4.60;;;;;;;1.39;100.00;97809.89;1737670;83;20991;-74
2021/12/20 00:21:22;;;;;;;7.60;4.30;;;;;;;1.39;100.00;97817.05;1737710;83;21526;-74
2021/12/20 00:23:49;;;;;;;6.80;4.20;;;;;;;1.40;100.00;97810.23;1737719;83;20975;-74
2021/12/20 00:26:16;;;;;;;8.23;4.50;;;;;;;1.39;100.00;97814.39;1737698;82;20992;-73
2021/12/20 00:28:42;;;;;;;7.60;4.03;;;;;;;1.36;100.00;97818.20;1737752;83;20975;-73
2021/12/20 00:31:10;;;;;;;7.27;4.20;;;;;;;1.32;100.00;97815.04;1737833;83;21555;-74
2021/12/20 00:33:36;;;;;;;7.07;4.33;;;;;;;1.32;100.00;97816.38;1737613;83;21031;-74
2021/12/20 00:36:06;;;;;;;6.77;3.90;;;;;;;1.30;100.00;97818.38;1737761;83;20964;-74
2021/12/20 00:41:20;;;;;;;9.47;4.60;;;;;;;1.32;100.00;97832.34;1738096;82;21489;-75
2021/12/20 00:43:47;;;;;;;11.20;5.10;;;;;;;1.35;100.00;97833.01;1742170;82;21043;-74
2021/12/20 00:46:13;;;;;;;10.47;4.77;;;;;;;1.36;100.00;97828.85;1742238;82;21568;-74
2021/12/20 00:48:40;;;;;;;11.20;5.30;;;;;;;1.36;100.00;97824.03;1742310;82;21004;-74
2021/12/20 00:51:13;;;;;;;11.03;4.93;;;;;;;1.35;100.00;97822.36;1743339;82;21035;-74
2021/12/20 00:53:40;;;;;;;;;;;;;;;1.35;100.00;97823.69;1745031;82;21023;-73
2021/12/20 00:56:08;;;;;;;7.67;4.10;;;;;;;1.30;100.00;97829.03;1740153;82;20107;-74
2021/12/20 00:58:35;;;;;;;12.23;5.27;;;;;;;1.27;100.00;97828.02;1739213;82;21003;-75
2021/12/20 01:01:02;;;;;;;8.80;4.10;;;;;;;1.26;100.00;97821.55;1738703;82;21044;-74
2021/12/20 01:03:31;;;;;;;8.83;4.13;;;;;;;1.22;100.00;97821.53;1739248;82;21454;-74
2021/12/20 01:05:59;;;;;;;9.60;4.03;;;;;;;1.19;100.00;97821.38;1738091;81;20991;-74
2021/12/20 01:08:29;;;;;;;5.97;3.67;;;;;;;1.18;100.00;97821.55;1739225;82;20978;-73
2021/12/20 01:10:56;;;;;;;9.53;4.20;;;;;;;1.14;100.00;97815.21;1738018;82;21006;-73
2021/12/20 01:13:24;;;;;;;11.30;5.10;;;;;;;1.13;100.00;97816.70;1738648;82;21442;-74
2021/12/20 01:15:54;;;;;;;11.07;5.50;;;;;;;1.08;100.00;97810.56;1738054;82;21002;-74
2021/12/20 01:18:21;;;;;;;12.27;5.47;;;;;;;1.05;100.00;97812.22;1739039;82;21007;-74
2021/12/20 01:20:48;;;;;;;13.37;6.20;;;;;;;1.04;100.00;97809.72;1737616;82;21014;-74
2021/12/20 01:23:15;;;;;;;12.20;5.27;;;;;;;1.01;100.00;97810.03;1739513;82;20987;-74
2021/12/20 01:25:43;;;;;;;14.17;5.90;;;;;;;0.98;100.00;97807.22;1738368;82;20975;-73
2021/12/20 01:28:10;;;;;;;12.03;5.57;;;;;;;0.96;100.00;97803.89;1748512;82;21007;-74
2021/12/20 01:30:38;;;;;;;11.83;5.40;;;;;;;0.97;100.00;97798.89;1752902;82;21069;-74
2021/12/20 01:35:34;;;;;;;10.33;4.90;;;;;;;0.95;100.00;97796.90;1665049;86;21151;-73
2021/12/20 01:38:01;;;;;;;9.27;4.67;;;;;;;0.95;100.00;97800.38;1665257;86;20983;-73
2021/12/20 01:40:28;;;;;;;10.07;5.00;;;;;;;0.95;100.00;97800.89;1665234;86;21007;-74
2021/12/20 01:42:56;;;;;;;7.07;4.07;;;;;;;0.94;100.00;97800.06;1664851;86;21043;-74
2021/12/20 01:45:24;;;;;;;14.27;6.67;;;;;;;0.96;100.00;97807.89;1665549;86;21022;-74
2021/12/20 01:48:01;;;;;;;13.33;5.53;;;;;;;0.93;100.00;97805.05;1665151;86;21027;-74
2021/12/20 01:50:35;;;;;;;12.30;5.10;;;;;;;0.92;100.00;97798.08;1662059;86;21529;-73
2021/12/20 01:52:49;;;;;;;10.93;4.67;;;;;;;0.94;100.00;97797.91;1661850;86;21078;-73
2021/12/20 01:55:20;;;;;;;11.77;4.70;;;;;;;0.94;100.00;97800.06;1665243;86;21583;-72
2021/12/20 01:57:47;;;;;;;12.30;5.27;;;;;;;0.94;100.00;97795.25;1643100;87;21030;-73
2021/12/20 02:00:21;;;;;;;10.50;5.27;;;;;;;0.92;100.00;97803.88;1642923;87;21110;-73
2021/12/20 02:02:52;;;;;;;9.37;5.13;;;;;;;0.91;100.00;97795.06;1643225;87;21006;-73
2021/12/20 02:05:22;;;;;;;11.67;5.40;;;;;;;0.92;100.00;97799.41;1642863;87;21031;-73
2021/12/20 02:07:58;;;;;;;12.57;5.30;;;;;;;0.91;100.00;97797.73;1639873;87;21030;-74
2021/12/20 02:10:20;;;;;;;12.60;5.80;;;;;;;0.92;100.00;97801.21;1618479;87;21070;-74
2021/12/20 02:12:48;;;;;;;14.67;5.47;;;;;;;0.93;100.00;97806.37;1643026;87;21034;-73
2021/12/20 02:15:22;;;;;;;13.43;5.70;;;;;;;0.94;100.00;97812.55;1643196;87;21555;-72
2021/12/20 02:17:49;;;;;;;15.10;6.47;;;;;;;0.93;100.00;97809.03;1643209;87;21010;-74
2021/12/20 02:20:26;;;;;;;14.87;6.43;;;;;;;0.95;100.00;97814.19;1643346;87;21066;-75
2021/12/20 02:22:56;;;;;;;14.43;6.40;;;;;;;0.96;100.00;97821.20;1643183;87;21022;-74
2021/12/20 02:25:24;;;;;;;16.00;6.63;;;;;;;0.96;100.00;97818.53;1643104;87;21073;-74
2021/12/20 02:27:50;;;;;;;17.13;7.50;;;;;;;0.97;100.00;97823.34;1639623;87;21034;-73
2021/12/20 02:36:58;;;;;;;19.03;8.00;;;;;;;0.96;100.00;97821.20;1694528;85;21477;-75
2021/12/20 02:38:22;;;;;;;18.33;7.67;;;;;;;0.96;100.00;97827.84;1694973;85;20998;-74
2021/12/20 02:41:11;;;;;;;20.33;9.27;;;;;;;0.97;100.00;97828.67;1695100;85;21066;-73
2021/12/20 02:43:42;;;;;;;17.73;8.67;;;;;;;0.96;100.00;97835.83;1695172;84;21585;-74
2021/12/20 02:48:55;;;;;;;13.30;7.00;;;;;;;0.95;100.00;97832.31;1695249;85;21000;-73
2021/12/20 02:51:28;;;;;;;10.63;5.63;;;;;;;0.93;100.00;97842.80;1695251;85;21537;-73
2021/12/20 02:53:58;;;;;;;16.80;9.30;;;;;;;0.91;100.00;97845.63;1701024;83;20978;-73
2021/12/20 02:56:25;;;;;;;12.87;7.30;;;;;;;0.90;100.00;97846.64;1687973;83;21011;-73
2021/12/20 02:58:52;;;;;;;7.97;4.70;;;;;;;0.89;100.00;97856.94;1675140;86;20995;-73
2021/12/20 03:01:19;;;;;;;3.60;3.30;;;;;;;0.87;100.00;97860.26;1647826;87;20996;-74
2021/12/20 03:03:46;;;;;;;5.60;3.57;;;;;;;0.87;100.00;97860.77;1675296;86;20996;-73
2021/12/20 03:06:24;;;;;;;2.80;2.60;;;;;;;0.85;100.00;97864.91;1675366;85;21023;-73
2021/12/20 03:08:53;;;;;;;2.77;2.57;;;;;;;0.84;100.00;97862.41;1675362;86;21035;-74
2021/12/20 03:11:21;;;;;;;3.20;2.90;;;;;;;0.84;100.00;97866.41;1675221;86;21075;-73
2021/12/20 03:13:51;;;;;;;5.50;3.00;;;;;;;0.82;100.00;97871.06;1675246;86;21497;-73
2021/12/20 03:16:16;;;;;;;2.80;2.53;;;;;;;0.80;100.00;97878.34;1675291;85;21490;-73
2021/12/20 03:18:43;;;;;;;3.97;2.80;;;;;;;0.79;100.00;97884.17;1675296;86;20992;-73
2021/12/20 03:21:10;;;;;;;3.47;3.03;;;;;;;0.79;100.00;97880.69;1675288;86;21004;-72
2021/12/20 03:23:37;;;;;;;3.53;2.90;;;;;;;0.79;100.00;97886.83;1675267;86;21544;-74
2021/12/20 03:26:04;;;;;;;3.43;2.60;;;;;;;0.79;100.00;97888.16;1675381;86;20975;-74
2021/12/20 03:28:30;;;;;;;3.10;2.80;;;;;;;0.79;100.00;97891.33;1690709;85;21019;-74
2021/12/20 03:30:57;;;;;;;4.83;2.77;;;;;;;0.79;100.00;97887.34;1695180;85;20982;-73
2021/12/20 03:33:24;;;;;;;6.33;4.50;;;;;;;0.75;100.00;97875.69;1695194;84;21475;-74
2021/12/20 03:35:51;;;;;;;3.53;2.90;;;;;;;0.72;100.00;97879.98;1695077;84;21096;-74
2021/12/20 03:38:18;;;;;;;3.40;3.10;;;;;;;0.70;100.00;97877.98;1694925;85;20983;-73
2021/12/20 03:40:46;;;;;;;2.67;2.47;;;;;;;0.71;100.00;97883.66;1708099;84;21057;-74
2021/12/20 03:43:13;;;;;;;3.63;2.57;;;;;;;0.70;100.00;97887.30;1710004;84;21006;-74
2021/12/20 03:45:42;;;;;;;4.03;3.13;;;;;;;0.69;100.00;97898.95;1710110;84;21010;-73
2021/12/20 03:48:09;;;;;;;5.57;2.87;;;;;;;0.67;100.00;97892.11;1710118;84;21069;-73
2021/12/20 03:50:35;;;;;;;5.00;3.27;;;;;;;0.64;100.00;97889.29;1709905;84;20998;-74
2021/12/20 03:53:02;;;;;;;4.03;3.00;;;;;;;0.64;100.00;97899.93;1710114;84;20998;-73
2021/12/20 03:55:29;;;;;;;4.53;3.10;;;;;;;0.62;100.00;97897.08;1700950;84;20941;-73
2021/12/20 03:58:02;;;;;;;6.23;3.20;;;;;;;0.60;100.00;97895.08;1681675;85;21032;-73
2021/12/20 04:00:29;;;;;;;8.27;3.63;;;;;;;0.56;100.00;97899.89;1681549;85;21064;-72
2021/12/20 04:02:56;;;;;;;7.90;3.40;;;;;;;0.53;100.00;97899.72;1681693;85;21458;-73
2021/12/20 04:05:25;;;;;;;9.57;3.70;;;;;;;0.50;100.00;97894.71;1681776;85;21000;-74
2021/12/20 04:07:52;;;;;;;7.13;4.10;;;;;;;0.48;100.00;97902.02;1681857;85;21431;-73
2021/12/20 04:10:19;;;;;;;8.90;4.33;;;;;;;0.48;100.00;97909.14;1681580;85;20961;-74
2021/12/20 04:12:45;;;;;;;9.17;4.30;;;;;;;0.46;100.00;97919.11;1681634;85;20968;-74
2021/12/20 04:15:12;;;;;;;9.13;3.93;;;;;;;0.43;100.00;97922.94;1681477;85;20985;-74
2021/12/20 04:17:39;;;;;;;8.07;3.43;;;;;;;0.44;100.00;97926.42;1681564;85;21454;-73
2021/12/20 04:20:07;;;;;;;8.30;3.43;;;;;;;0.44;100.00;97937.05;1681493;85;21518;-74
2021/12/20 04:22:36;;;;;;;6.90;4.20;;;;;;;0.45;100.00;97942.22;1681384;85;21012;-74
2021/12/20 04:25:05;;;;;;;9.43;4.50;;;;;;;0.46;100.00;97941.24;1681587;85;20977;-74
2021/12/20 04:27:32;;;;;;;10.93;4.87;;;;;;;0.48;100.00;97951.22;1682543;84;21453;-75
2021/12/20 04:29:59;;;;;;;12.87;5.77;;;;;;;0.49;100.00;97950.20;1742071;81;21066;-74
2021/12/20 04:32:26;;;;;;;13.43;6.60;;;;;;;0.51;100.00;97952.71;1742100;82;20960;-73
2021/12/20 04:34:52;;;;;;;15.93;6.83;;;;;;;0.52;100.00;97954.39;1742144;82;20980;-75
2021/12/20 04:37:19;;;;;;;10.10;4.87;;;;;;;0.51;100.00;97955.38;1742180;82;20955;-75
2021/12/20 04:39:47;;;;;;;10.93;5.27;;;;;;;0.51;100.00;97952.23;1742178;82;21039;-73
2021/12/20 04:42:14;;;;;;;7.73;4.77;;;;;;;0.52;100.00;97961.04;1742495;82;20960;-74
2021/12/20 04:44:40;;;;;;;7.60;4.70;;;;;;;0.53;100.00;97959.56;1748296;82;21015;-73
2021/12/20 04:47:07;;;;;;;6.40;4.70;;;;;;;0.54;100.00;97966.52;1748188;82;20939;-73
2021/12/20 04:49:34;;;;;;;6.47;4.83;;;;;;;0.53;100.00;97972.00;1748211;82;21027;-72
2021/12/20 04:52:01;;;;;;;10.03;5.80;;;;;;;0.51;100.00;97975.31;1748268;82;20985;-74
2021/12/20 04:54:28;;;;;;;7.70;5.50;;;;;;;0.48;100.00;97980.94;1748176;82;20999;-73
2021/12/20 04:56:54;;;;;;;8.27;5.37;;;;;;;0.46;100.00;97988.25;1727873;81;20951;-73
2021/12/20 04:59:21;;;;;;;8.63;4.87;;;;;;;0.42;100.00;97986.91;1725645;81;21477;-74
2021/12/20 05:01:47;;;;;;;6.60;4.50;;;;;;;0.37;100.00;97991.34;1725734;83;21027;-74
2021/12/20 05:04:14;;;;;;;7.13;4.90;;;;;;;0.36;100.00;97991.86;1725804;83;20963;-73
2021/12/20 05:06:41;;;;;;;5.40;4.10;;;;;;;0.37;100.00;97996.19;1725778;82;21006;-74
2021/12/20 05:09:07;;;;;;;7.03;4.40;;;;;;;0.35;100.00;98002.64;1726024;83;21026;-74
2021/12/20 05:11:36;;;;;;;10.63;5.50;;;;;;;0.35;100.00;98002.17;1725784;82;20959;-73
2021/12/20 05:14:03;;;;;;;10.93;6.10;;;;;;;0.32;100.00;98004.27;1725631;83;20967;-73
2021/12/20 05:16:29;;;;;;;10.33;6.20;;;;;;;0.30;100.00;98003.59;1725726;83;21464;-73
2021/12/20 05:18:56;;;;;;;9.47;5.30;;;;;;;0.28;100.00;98012.23;1725789;82;21039;-74
2021/12/20 05:21:23;;;;;;;10.90;5.40;;;;;;;0.26;100.00;98015.55;1725776;82;20987;-73
2021/12/20 05:23:51;;;;;;;9.93;5.00;;;;;;;0.24;100.00;98015.70;1725693;83;21007;-74
2021/12/20 05:26:18;;;;;;;10.73;5.40;;;;;;;0.23;100.00;98013.19;1725779;82;20951;-74
2021/12/20 05:28:45;;;;;;;11.80;5.40;;;;;;;0.21;100.00;98021.31;1737324;82;20987;-74
2021/12/20 05:31:11;;;;;;;11.47;6.30;;;;;;;0.18;100.00;98027.78;1737575;82;21457;-74
2021/12/20 05:33:39;;;;;;;11.80;5.77;;;;;;;0.17;100.00;98026.61;1737558;83;21486;-72
2021/12/20 05:36:05;;;;;;;11.30;5.70;;;;;;;0.14;100.00;98029.09;1737732;83;20952;-74
2021/12/20 05:38:32;;;;;;;10.87;5.50;;;;;;;0.11;100.00;98032.05;1737576;82;21059;-74
2021/12/20 05:40:59;;;;;;;10.10;5.27;;;;;;;0.09;100.00;98034.03;1737581;83;21433;-74
2021/12/20 05:43:27;;;;;;;10.23;5.50;;;;;;;0.08;100.00;98036.34;1738513;81;20980;-74
2021/12/20 05:45:54;;;;;;;13.13;6.00;;;;;;;0.07;100.00;98045.78;1740173;82;21034;-73
2021/12/20 05:48:20;;;;;;;9.73;5.13;;;;;;;0.03;100.00;98040.45;1740222;82;21050;-74
2021/12/20 05:50:47;;;;;;;11.77;5.80;;;;;;;0.02;100.00;98034.31;1740388;82;20967;-74
2021/12/20 05:53:14;;;;;;;11.27;5.63;;;;;;;0.03;100.00;98045.26;1740179;82;21011;-74
2021/12/20 05:55:40;;;;;;;10.20;5.13;;;;;;;0.03;100.00;98046.59;1736058;82;21015;-73
2021/12/20 05:58:07;;;;;;;11.43;5.67;;;;;;;0.04;100.00;98045.61;1725765;83;21528;-74
2021/12/20 06:00:34;;;;;;;10.70;5.73;;;;;;;0.04;100.00;98049.59;1725664;83;21015;-74
2021/12/20 06:03:00;;;;;;;12.07;6.20;;;;;;;0.02;100.00;98055.56;1725660;83;21010;-73
2021/12/20 06:05:27;;;;;;;13.90;7.80;;;;;;;0.03;100.00;98059.05;1725546;83;21011;-73
2021/12/20 06:07:53;;;;;;;12.80;6.33;;;;;;;0.02;100.00;98058.22;1725520;83;20995;-74
2021/12/20 06:10:20;;;;;;;12.37;6.53;;;;;;;0.03;100.00;98059.88;1725710;82;21040;-73
2021/12/20 06:12:48;;;;;;;20.73;9.20;;;;;;;0.03;100.00;98067.84;1725750;83;21046;-73
2021/12/20 06:15:15;;;;;;;21.50;9.70;;;;;;;0.06;100.00;98070.70;1725814;82;21475;-74
2021/12/20 06:17:42;;;;;;;20.63;9.70;;;;;;;0.06;100.00;98072.04;1726292;83;21026;-73
2021/12/20 06:20:11;;;;;;;19.77;8.90;;;;;;;0.04;100.00;98068.70;1726646;83;21050;-73
2021/12/20 06:22:37;;;;;;;15.93;7.80;;;;;;;0.03;100.00;98067.02;1726364;83;21042;-71
2021/12/20 06:25:05;;;;;;;13.17;6.73;;;;;;;0.03;100.00;98071.00;1725825;83;20987;-71
2021/12/20 06:27:32;;;;;;;13.63;6.90;;;;;;;0.01;100.00;98072.48;1735719;82;21025;-71
2021/12/20 06:29:59;;;;;;;14.97;6.87;;;;;;;0.01;100.00;98071.66;1743475;82;21015;-70
2021/12/20 06:32:27;;;;;;;11.10;6.63;;;;;;;0.01;100.00;98079.63;1743499;82;21477;-71
2021/12/20 06:34:54;;;;;;;11.67;6.87;;;;;;;0.03;100.00;98082.97;1742973;82;21037;-70
2021/12/20 06:37:20;;;;;;;11.67;5.87;;;;;;;0.03;100.00;98088.28;1741271;82;21159;-71
2021/12/20 06:39:47;;;;;;;10.50;5.83;;;;;;;0.04;100.00;98092.62;1739649;82;21516;-71
2021/12/20 06:42:14;;;;;;;8.77;4.67;;;;;;;0.02;100.00;98099.41;1737315;81;21465;-70
2021/12/20 06:44:41;;;;;;;7.13;4.20;;;;;;;0.02;100.00;98095.42;1750797;81;20978;-71
2021/12/20 06:47:08;;;;;;;8.47;5.23;;;;;;;-0.02;100.00;98108.65;1753985;81;21034;-71
2021/12/20 06:49:35;;;;;;;14.63;8.60;;;;;;;-0.03;100.00;98103.84;1753165;81;21460;-72
2021/12/20 06:52:03;;;;;;;11.63;6.17;;;;;;;0.03;100.00;98106.88;1751616;81;20971;-71
2021/12/20 06:54:30;;;;;;;17.03;8.70;;;;;;;0.09;100.00;98105.79;1751496;81;20952;-71
2021/12/20 06:56:56;;;;;;;20.07;12.63;;;;;;;0.11;100.00;98095.01;1755239;81;20955;-70
2021/12/20 06:59:23;;;;;;;25.20;17.33;;;;;;;0.14;100.00;98099.52;1752098;81;20976;-72
2021/12/20 07:01:50;;;;;;;15.90;10.53;;;;;;;0.15;100.00;98101.17;1751292;81;21536;-71
2021/12/20 07:04:17;;;;;;;94.00;35.33;;;;;;;0.19;100.00;98096.39;1752980;81;20979;-71
2021/12/20 07:06:43;;;;;;;56.43;23.00;;;;;;;0.24;100.00;98086.64;1751727;81;20955;-73
2021/12/20 07:09:10;;;;;;;32.57;13.43;;;;;;;0.29;100.00;98091.83;1753306;81;21030;-72
2021/12/20 07:11:40;;;;;;;28.17;12.63;;;;;;;0.38;100.00;98090.08;1751308;81;21512;-72
2021/12/20 07:14:06;;;;;;;19.57;11.13;;;;;;;0.50;100.00;98097.33;1751548;81;20975;-74
2021/12/20 07:16:34;;;;;;;16.37;9.93;;;;;;;0.58;100.00;98096.03;1753543;81;20951;-73
2021/12/20 07:19:02;;;;;;;25.53;13.33;;;;;;;0.63;100.00;98100.40;1751173;81;21049;-74
2021/12/20 07:21:29;;;;;;;18.70;9.60;;;;;;;0.69;100.00;98105.11;1751846;81;21034;-75
2021/12/20 07:23:56;;;;;;;11.97;6.20;;;;;;;0.72;100.00;98107.94;1754547;81;21034;-74
2021/12/20 07:26:23;;;;;;;10.57;6.63;;;;;;;0.70;100.00;98109.42;1751203;81;21007;-74
2021/12/20 07:28:50;;;;;;;28.90;19.57;;;;;;;0.63;100.00;98111.04;1751595;81;20970;-75
2021/12/20 07:31:16;;;;;;;20.80;13.80;;;;;;;0.65;100.00;98115.70;1750293;81;20982;-74
2021/12/20 07:33:45;;;;;;;19.10;12.57;;;;;;;0.67;100.00;98123.03;1751994;81;20975;-72
2021/12/20 07:36:15;;;;;;;23.10;15.93;;;;;;;0.74;100.00;98120.59;1753667;81;21003;-72
2021/12/20 07:38:40;;;;;;;23.60;14.97;;;;;;;0.83;100.00;98124.14;1735095;82;20975;-70
2021/12/20 07:41:07;;;;;;;21.10;12.70;;;;;;;0.92;100.00;98120.53;1758304;82;21548;-74
2021/12/20 07:43:33;;;;;;;26.73;15.27;;;;;;;0.98;100.00;98122.59;1755194;80;20972;-74
2021/12/20 07:46:00;;;;;;;18.23;11.00;;;;;;;1.09;100.00;98129.47;1744253;82;20972;-72
2021/12/20 07:48:27;;;;;;;16.03;8.63;;;;;;;1.22;100.00;98118.38;1744809;82;20975;-72
2021/12/20 07:50:54;;;;;;;14.10;8.70;;;;;;;1.40;100.00;98124.95;1741467;82;21015;-70
2021/12/20 07:53:21;;;;;;;19.77;9.33;;;;;;;1.54;100.00;98131.52;1765105;81;21007;-74
2021/12/20 07:55:47;;;;;;;20.23;11.00;;;;;;;1.66;100.00;98127.56;1755890;81;21491;-74
2021/12/20 07:58:15;;;;;;;23.17;13.40;;;;;;;1.80;100.00;98133.60;1755168;81;21487;-76
2021/12/20 08:00:42;;;;;;;24.00;14.23;;;;;;;1.84;100.00;98130.97;1759124;80;21034;-74
2021/12/20 08:03:09;;;;;;;20.03;12.60;;;;;;;1.78;100.00;98137.44;1753927;81;21054;-77
2021/12/20 08:05:36;;;;;;;25.87;14.30;;;;;;;1.75;100.00;98142.58;1749340;81;21437;-76
2021/12/20 08:08:03;;;;;;;25.70;14.07;;;;;;;1.68;100.00;98146.41;1757929;81;20963;-74
2021/12/20 08:10:32;;;;;;;25.07;15.03;;;;;;;1.64;100.00;98143.70;1762475;81;20935;-74
2021/12/20 08:12:59;;;;;;;44.87;28.97;;;;;;;1.61;100.00;98147.19;1750672;81;21022;-75
2021/12/20 08:15:28;;;;;;;64.80;45.57;;;;;;;1.57;100.00;98148.52;1744235;81;20972;-79
2021/12/20 08:17:56;;;;;;;33.60;21.63;;;;;;;1.53;100.00;98145.84;1751410;81;20980;-75
2021/12/20 08:20:22;;;;;;;31.93;20.60;;;;;;;1.51;100.00;98146.83;1754833;81;20978;-77
2021/12/20 08:22:49;;;;;;;32.13;18.93;;;;;;;1.51;100.00;98155.33;1762153;80;21104;-76
2021/12/20 08:25:16;;;;;;;36.60;21.77;;;;;;;1.50;100.00;98156.30;1764238;81;21418;-77
2021/12/20 08:27:44;;;;;;;29.03;18.40;;;;;;;1.52;100.00;98162.30;1750277;81;20998;-79
2021/12/20 08:30:10;;;;;;;40.87;24.20;;;;;;;1.54;100.00;98158.16;1764884;80;20979;-76
2021/12/20 08:32:39;;;;;;;39.23;25.53;;;;;;;1.57;100.00;98163.99;1768239;81;21061;-74
2021/12/20 08:35:07;;;;;;;35.30;21.70;;;;;;;1.61;100.00;98159.18;1759635;81;21454;-75
2021/12/20 08:37:34;;;;;;;38.67;22.50;;;;;;;1.60;100.00;98166.85;1749099;80;21031;-78
2021/12/20 08:40:03;;;;;;;24.47;12.90;;;;;;;1.55;100.00;98169.98;1755415;81;20971;-75
2021/12/20 08:42:30;;;;;;;17.37;9.30;;;;;;;1.50;100.00;98170.45;1723312;83;21011;-73
2021/12/20 08:44:57;;;;;;;15.07;8.03;;;;;;;1.43;100.00;98179.24;1761314;81;21721;-71
2021/12/20 08:47:24;;;;;;;23.07;11.83;;;;;;;1.33;100.00;98178.87;1757458;80;21046;-75
2021/12/20 08:49:51;;;;;;;21.10;11.80;;;;;;;1.31;100.00;98180.00;1746138;81;21493;-75
2021/12/20 08:52:17;;;;;;;26.17;14.47;;;;;;;1.32;100.00;98175.03;1759714;80;20959;-73
2021/12/20 08:54:45;;;;;;;22.97;12.17;;;;;;;1.38;100.00;98174.89;1758317;80;20955;-73
2021/12/20 08:57:11;;;;;;;33.93;18.60;;;;;;;1.49;100.00;98175.45;1758666;80;20967;-74
2021/12/20 08:59:38;;;;;;;22.13;11.63;;;;;;;1.66;100.00;98175.52;1761544;80;21007;-75
2021/12/20 09:02:07;;;;;;;31.60;19.43;;;;;;;1.81;100.00;98177.09;1751882;80;21039;-75
2021/12/20 09:04:35;;;;;;;24.13;10.57;;;;;;;1.96;100.00;98171.98;1746747;80;20944;-75
2021/12/20 09:07:03;;;;;;;23.03;13.03;;;;;;;2.09;100.00;98186.52;1752690;80;20983;-78
2021/12/20 09:09:36;;;;;;;19.87;11.53;;;;;;;2.14;100.00;98178.02;1754727;80;20990;-72
2021/12/20 09:11:59;;;;;;;21.80;11.57;;;;;;;2.22;100.00;98177.22;1719848;82;21023;-74
2021/12/20 09:14:28;;;;;;;22.10;11.77;;;;;;;2.36;100.00;98175.23;1761885;80;21010;-74
2021/12/20 09:16:55;;;;;;;20.30;10.87;;;;;;;2.56;100.00;98180.27;1768184;80;20971;-76
2021/12/20 09:19:22;;;;;;;22.50;10.47;;;;;;;2.66;100.00;98183.10;1761987;80;20969;-76
2021/12/20 09:21:49;;;;;;;23.80;13.77;;;;;;;2.71;100.00;98188.44;1763983;80;20979;-76
2021/12/20 09:24:16;;;;;;;14.63;8.57;;;;;;;2.69;100.00;98191.27;1748641;81;21589;-79
2021/12/20 09:26:43;;;;;;;12.70;6.10;;;;;;;2.55;100.00;98194.59;1758998;80;21034;-74
2021/12/20 09:29:10;;;;;;;11.33;6.47;;;;;;;2.40;100.00;98213.91;1746029;80;20955;-72
2021/12/20 09:31:37;;;;;;;9.00;4.90;;;;;;;2.24;100.00;98228.05;1749768;80;20979;-70
2021/12/20 09:34:03;;;;;;;21.13;11.47;;;;;;;2.10;100.00;98234.00;1744798;80;20976;-71
2021/12/20 09:36:32;;;;;;;14.23;7.73;;;;;;;1.96;100.00;98245.28;1749629;80;20983;-73
2021/12/20 09:39:00;;;;;;;43.20;20.53;;;;;;;1.83;100.00;98247.06;1764338;80;20959;-74
2021/12/20 09:44:10;;;;;;;31.80;19.87;;;;;;;1.61;100.00;98255.95;1763481;80;21508;-73
2021/12/20 09:46:39;;;;;;;31.83;19.63;;;;;;;1.55;100.00;98267.22;1754297;80;21026;-76
2021/12/20 09:49:08;;;;;;;28.37;16.20;;;;;;;1.48;100.00;98258.19;1769252;80;20983;-72
2021/12/20 09:51:35;;;;;;;27.63;16.87;;;;;;;1.43;100.00;98263.14;1770024;80;20971;-73
2021/12/20 09:54:04;;;;;;;43.53;26.87;;;;;;;1.41;100.00;98266.46;1767054;80;20971;-71
2021/12/20 09:56:32;;;;;;;37.33;22.23;;;;;;;1.39;100.00;98271.94;1739847;80;21384;-78
2021/12/20 09:59:00;;;;;;;24.50;14.13;;;;;;;1.41;100.00;98265.95;1753907;80;21536;-74
2021/12/20 10:01:28;;;;;;;18.17;9.97;;;;;;;1.45;100.00;98270.00;1761854;80;21535;-78
2021/12/20 10:03:55;;;;;;;11.20;6.90;;;;;;;1.50;100.00;98272.17;1749257;80;20975;-78
2021/12/20 10:06:22;;;;;;;22.73;10.30;;;;;;;1.55;100.00;98277.05;1759520;80;21562;-73
2021/12/20 10:11:26;;;;;;;17.75;8.23;;;;;;;1.62;100.00;98283.42;1649959;86;21139;-81
2021/12/20 10:14:09;;;;;;;14.40;7.50;;;;;;;1.67;100.00;98291.78;1612468;86;21540;-79
2021/12/20 10:16:37;;;;;;;10.67;6.07;;;;;;;1.73;100.00;98290.31;1588211;88;21076;-78
2021/12/20 10:19:05;;;;;;;18.67;8.43;;;;;;;1.79;100.00;98287.00;1599339;88;21046;-79
2021/12/20 10:21:40;;;;;;;26.43;15.63;;;;;;;1.83;100.00;98287.87;1593727;89;21104;-77
2021/12/20 10:24:07;;;;;;;24.27;14.70;;;;;;;1.90;100.00;98290.74;1601399;89;21616;-76
2021/12/20 10:26:42;;;;;;;18.37;10.27;;;;;;;2.00;100.00;98295.94;1598083;89;21071;-75
2021/12/20 10:29:20;;;;;;;26.20;15.83;;;;;;;2.10;100.00;98297.99;1604794;89;21063;-78
2021/12/20 10:31:47;;;;;;;9.90;5.40;;;;;;;2.20;100.00;98297.38;1598358;87;21525;-78
2021/12/20 10:34:14;;;;;;;8.20;4.57;;;;;;;2.31;100.00;98291.42;1598854;89;21094;-78
2021/12/20 10:36:55;;;;;;;11.70;7.20;;;;;;;2.35;100.00;98302.09;1597096;90;21050;-79
2021/12/20 10:39:41;;;;;;;8.60;5.67;;;;;;;2.36;100.00;98298.45;1597524;90;21035;-76
2021/12/20 10:42:27;;;;;;;12.63;6.30;;;;;;;2.40;100.00;98306.45;1589459;90;21208;-76
2021/12/20 10:45:19;;;;;;;31.17;19.40;;;;;;;2.38;100.00;98306.61;1607245;88;21062;-76
2021/12/20 10:47:48;;;;;;;14.60;7.60;;;;;;;2.38;100.00;98315.13;1577405;90;21035;-75
2021/12/20 10:50:31;;;;;;;15.53;7.00;;;;;;;2.38;100.00;98313.28;1557325;90;21086;-74
2021/12/20 10:53:21;;;;;;;14.13;6.77;;;;;;;2.34;100.00;98324.42;1573697;90;21508;-72
2021/12/20 10:55:54;;;;;;;11.47;6.07;;;;;;;2.26;100.00;98335.39;1522521;92;21516;-74
2021/12/20 10:58:38;;;;;;;10.80;5.33;;;;;;;2.18;100.00;98342.04;1530334;92;21035;-74
2021/12/20 11:01:21;;;;;;;10.90;5.30;;;;;;;2.07;100.00;98347.63;1523962;93;21042;-75
2021/12/20 11:03:58;;;;;;;10.13;5.27;;;;;;;1.94;100.00;98355.23;1529449;93;21042;-76
2021/12/20 11:06:26;;;;;;;10.63;5.63;;;;;;;1.85;100.00;98354.34;1527013;93;21071;-75
2021/12/20 11:09:05;;;;;;;18.20;8.87;;;;;;;1.76;100.00;98357.45;1529320;93;21098;-76
2021/12/20 11:11:39;;;;;;;14.27;6.87;;;;;;;1.73;100.00;98356.92;1535818;92;21054;-77
2021/12/20 11:14:06;;;;;;;;;;;;;;;1.70;100.00;98360.25;1552786;91;21042;-76
2021/12/20 11:16:46;;;;;;;17.07;8.63;;;;;;;1.67;100.00;98361.05;1545291;91;20148;-79
2021/12/20 11:19:41;;;;;;;17.80;8.87;;;;;;;1.66;100.00;98359.37;1566391;91;21058;-74
2021/12/20 11:22:13;;;;;;;15.63;7.67;;;;;;;1.64;100.00;98363.52;1533961;93;21598;-73
2021/12/20 11:24:55;;;;;;;14.83;7.63;;;;;;;1.64;100.00;98359.52;1525416;93;21076;-72
2021/12/20 11:27:36;;;;;;;31.03;17.73;;;;;;;1.61;100.00;98358.52;1529668;93;21076;-71
2021/12/20 11:30:13;;;;;;;31.30;16.07;;;;;;;1.63;100.00;98361.00;1528646;93;21079;-71
2021/12/20 11:32:40;;;;;;;43.93;26.37;;;;;;;1.62;100.00;98359.34;1535486;93;21015;-71
2021/12/20 11:35:08;;;;;;;42.73;26.17;;;;;;;1.60;100.00;98366.16;1528934;93;21488;-70
2021/12/20 11:37:35;;;;;;;30.40;17.57;;;;;;;1.56;100.00;98370.61;1553790;90;21091;-72
2021/12/20 11:40:06;;;;;;;40.20;25.97;;;;;;;1.46;100.00;98364.88;1576664;90;20987;-71
2021/12/20 11:42:34;;;;;;;53.73;32.37;;;;;;;1.34;100.00;98364.77;1588385;90;21180;-72
2021/12/20 11:45:04;;;;;;;56.17;34.23;;;;;;;1.23;100.00;98369.02;1582668;88;21058;-72
2021/12/20 11:47:57;;;;;;;51.03;30.30;;;;;;;1.13;100.00;98368.61;1556937;91;21549;-71
2021/12/20 11:50:34;;;;;;;21.37;11.45;;;;;;;1.06;100.00;98366.67;1559286;91;21043;-74
2021/12/20 11:53:09;;;;;;;35.80;22.63;;;;;;;0.94;100.00;98365.58;1564523;90;21099;-72